sensor_id;sensor_type;location;lat;lon;timestamp;pressure;altitude;pressure_sealevel;temperature;humidity
48077;BME280;33854;57.708;12.008;2023-05-08T00:01:30;102364.25;;;7.04;100.00
48077;BME280;33854;57.708;12.008;2023-05-08T00:03:55;102338.41;;;6.88;100.00
48077;BME280;33854;57.708;12.008;2023-05-08T00:06:21;102360.81;;;7.00;100.00
48077;BME280;33854;57.708;12.008;2023-05-08T00:08:46;102373.78;;;7.02;100.00
48077;BME280;33854;57.708;12.008;2023-05-08T00:11:12;102373.75;;;7.08;100.00
48077;BME280;33854;57.708;12.008;2023-05-08T00:13:38;102365.94;;;7.09;100.00
48077;BME280;33854;57.708;12.008;2023-05-08T00:16:06;102367.72;;;7.04;100.00
48077;BME280;33854;57.708;12.008;2023-05-08T00:18:33;102374.66;;;6.99;100.00
48077;BME280;33854;57.708;12.008;2023-05-08T00:21:00;102372.94;;;6.97;100.00
48077;BME280;33854;57.708;12.008;2023-05-08T00:23:25;102376.41;;;6.97;100.00
48077;BME280;33854;57.708;12.008;2023-05-08T00:25:51;102379.00;;;6.96;100.00
48077;BME280;33854;57.708;12.008;2023-05-08T00:28:16;102376.38;;;6.99;100.00
48077;BME280;33854;57.708;12.008;2023-05-08T00:30:42;102372.94;;;7.03;100.00
48077;BME280;33854;57.708;12.008;2023-05-08T00:33:07;102376.38;;;7.05;100.00
48077;BME280;33854;57.708;12.008;2023-05-08T00:35:33;102379.81;;;7.08;100.00
48077;BME280;33854;57.708;12.008;2023-05-08T00:37:58;102373.75;;;7.11;100.00
48077;BME280;33854;57.708;12.008;2023-05-08T00:40:24;102370.28;;;7.07;100.00
48077;BME280;33854;57.708;12.008;2023-05-08T00:42:49;102373.75;;;7.06;100.00
48077;BME280;33854;57.708;12.008;2023-05-08T00:45:15;102383.31;;;7.03;100.00
48077;BME280;33854;57.708;12.008;2023-05-08T00:47:40;102376.41;;;6.97;100.00
48077;BME280;33854;57.708;12.008;2023-05-08T00:50:06;102380.75;;;6.94;100.00
48077;BME280;33854;57.708;12.008;2023-05-08T00:52:32;102385.09;;;6.92;100.00
48077;BME280;33854;57.708;12.008;2023-05-08T00:54:59;102384.25;;;6.82;100.00
48077;BME280;33854;57.708;12.008;2023-05-08T00:57:25;102384.25;;;6.77;100.00
48077;BME280;33854;57.708;12.008;2023-05-08T00:59:51;102381.72;;;6.73;100.00
48077;BME280;33854;57.708;12.008;2023-05-08T01:02:18;102382.56;;;6.69;100.00
48077;BME280;33854;57.708;12.008;2023-05-08T01:04:45;102390.38;;;6.67;100.00
48077;BME280;33854;57.708;12.008;2023-05-08T01:07:12;102369.69;;;6.48;100.00
48077;BME280;33854;57.708;12.008;2023-05-08T01:09:37;102390.44;;;6.51;100.00
48077;BME280;33854;57.708;12.008;2023-05-08T01:14:59;102392.19;;;6.44;100.00
48077;BME280;33854;57.708;12.008;2023-05-08T01:18:13;102388.75;;;6.39;100.00
48077;BME280;33854;57.708;12.008;2023-05-08T01:23:23;102387.91;;;6.34;100.00
48077;BME280;33854;57.708;12.008;2023-05-08T01:33:50;102393.94;;;6.27;100.00
48077;BME280;33854;57.708;12.008;2023-05-08T01:36:24;102405.19;;;6.26;100.00
48077;BME280;33854;57.708;12.008;2023-05-08T01:41:40;102409.53;;;6.19;100.00
48077;BME280;33854;57.708;12.008;2023-05-08T01:44:18;102413.81;;;6.20;100.00
48077;BME280;33854;57.708;12.008;2023-05-08T01:46:48;102415.56;;;6.15;100.00
48077;BME280;33854;57.708;12.008;2023-05-08T01:49:33;102421.66;;;6.08;100.00
48077;BME280;33854;57.708;12.008;2023-05-08T01:52:27;102425.97;;;6.05;100.00
48077;BME280;33854;57.708;12.008;2023-05-08T01:55:02;102431.13;;;6.03;100.00
48077;BME280;33854;57.708;12.008;2023-05-08T01:57:29;102431.13;;;6.02;100.00
48077;BME280;33854;57.708;12.008;2023-05-08T01:59:59;102431.13;;;5.93;100.00
48077;BME280;33854;57.708;12.008;2023-05-08T02:02:27;102433.72;;;5.90;100.00
48077;BME280;33854;57.708;12.008;2023-05-08T02:04:55;102425.09;;;5.91;100.00
48077;BME280;33854;57.708;12.008;2023-05-08T02:07:21;102408.66;;;5.84;100.00
48077;BME280;33854;57.708;12.008;2023-05-08T02:09:47;102422.50;;;5.89;100.00
48077;BME280;33854;57.708;12.008;2023-05-08T02:12:15;102429.41;;;5.89;100.00
48077;BME280;33854;57.708;12.008;2023-05-08T02:14:43;102425.91;;;5.81;100.00
48077;BME280;33854;57.708;12.008;2023-05-08T02:17:10;102434.56;;;5.81;100.00
48077;BME280;33854;57.708;12.008;2023-05-08T02:19:36;102430.25;;;5.71;100.00
48077;BME280;33854;57.708;12.008;2023-05-08T02:22:04;102420.72;;;5.61;100.00
48077;BME280;33854;57.708;12.008;2023-05-08T02:24:32;102426.78;;;5.61;100.00
48077;BME280;33854;57.708;12.008;2023-05-08T02:26:59;102430.19;;;5.51;100.00
48077;BME280;33854;57.708;12.008;2023-05-08T02:29:25;102412.94;;;5.34;100.00
48077;BME280;33854;57.708;12.008;2023-05-08T02:31:52;102431.91;;;5.46;100.00
48077;BME280;33854;57.708;12.008;2023-05-08T02:34:19;102434.53;;;5.52;100.00
48077;BME280;33854;57.708;12.008;2023-05-08T02:36:46;102433.66;;;5.49;100.00
48077;BME280;33854;57.708;12.008;2023-05-08T02:39:14;102418.09;;;5.31;100.00
48077;BME280;33854;57.708;12.008;2023-05-08T02:41:40;102422.41;;;5.35;100.00
48077;BME280;33854;57.708;12.008;2023-05-08T02:44:06;102433.63;;;5.38;100.00
48077;BME280;33854;57.708;12.008;2023-05-08T02:47:04;102427.59;;;5.39;100.00
48077;BME280;33854;57.708;12.008;2023-05-08T02:49:41;102422.41;;;5.33;100.00
48077;BME280;33854;57.708;12.008;2023-05-08T02:52:12;102425.00;;;5.30;100.00
48077;BME280;33854;57.708;12.008;2023-05-08T02:54:57;102423.28;;;5.31;100.00
48077;BME280;33854;57.708;12.008;2023-05-08T02:57:38;102425.00;;;5.33;100.00
48077;BME280;33854;57.708;12.008;2023-05-08T03:00:19;102430.16;;;5.30;100.00
48077;BME280;33854;57.708;12.008;2023-05-08T03:02:56;102429.28;;;5.27;100.00
48077;BME280;33854;57.708;12.008;2023-05-08T03:05:34;102422.34;;;5.19;100.00
48077;BME280;33854;57.708;12.008;2023-05-08T03:08:10;102423.19;;;5.11;100.00
48077;BME280;33854;57.708;12.008;2023-05-08T03:10:39;102420.59;;;5.08;100.00
48077;BME280;33854;57.708;12.008;2023-05-08T03:13:08;102420.59;;;5.11;100.00
48077;BME280;33854;57.708;12.008;2023-05-08T03:15:46;102422.34;;;5.12;100.00
48077;BME280;33854;57.708;12.008;2023-05-08T03:18:17;102423.19;;;5.06;100.00
48077;BME280;33854;57.708;12.008;2023-05-08T03:20:48;102422.31;;;4.98;100.00
48077;BME280;33854;57.708;12.008;2023-05-08T03:23:17;102425.75;;;5.03;100.00
48077;BME280;33854;57.708;12.008;2023-05-08T03:25:44;102425.78;;;5.06;100.00
48077;BME280;33854;57.708;12.008;2023-05-08T03:28:10;102411.09;;;5.02;100.00
48077;BME280;33854;57.708;12.008;2023-05-08T03:30:39;102413.69;;;5.04;100.00
48077;BME280;33854;57.708;12.008;2023-05-08T03:33:06;102413.69;;;5.07;100.00
48077;BME280;33854;57.708;12.008;2023-05-08T03:35:34;102417.19;;;5.15;100.00
48077;BME280;33854;57.708;12.008;2023-05-08T03:38:01;102399.88;;;5.08;100.00
48077;BME280;33854;57.708;12.008;2023-05-08T03:40:27;102409.38;;;5.09;100.00
48077;BME280;33854;57.708;12.008;2023-05-08T03:42:52;102397.28;;;5.08;100.00
48077;BME280;33854;57.708;12.008;2023-05-08T03:45:18;102399.06;;;5.15;100.00
48077;BME280;33854;57.708;12.008;2023-05-08T03:47:45;102413.75;;;5.22;100.00
48077;BME280;33854;57.708;12.008;2023-05-08T03:50:10;102403.41;;;5.25;100.00
48077;BME280;33854;57.708;12.008;2023-05-08T03:52:37;102399.94;;;5.29;100.00
48077;BME280;33854;57.708;12.008;2023-05-08T03:55:02;102401.69;;;5.30;100.00
48077;BME280;33854;57.708;12.008;2023-05-08T03:57:34;102412.91;;;5.29;100.00
48077;BME280;33854;57.708;12.008;2023-05-08T04:00:11;102412.03;;;5.27;100.00
48077;BME280;33854;57.708;12.008;2023-05-08T04:06:13;102404.28;;;5.35;100.00
48077;BME280;33854;57.708;12.008;2023-05-08T04:11:50;102394.78;;;5.28;100.00
48077;BME280;33854;57.708;12.008;2023-05-08T04:14:20;102406.88;;;5.44;100.00
48077;BME280;33854;57.708;12.008;2023-05-08T04:16:51;102400.84;;;5.49;100.00
48077;BME280;33854;57.708;12.008;2023-05-08T04:19:23;102406.03;;;5.57;100.00
48077;BME280;33854;57.708;12.008;2023-05-08T04:21:53;102397.41;;;5.64;100.00
48077;BME280;33854;57.708;12.008;2023-05-08T04:24:22;102395.69;;;5.67;100.00
48077;BME280;33854;57.708;12.008;2023-05-08T04:26:49;102399.16;;;5.75;100.00
48077;BME280;33854;57.708;12.008;2023-05-08T04:29:16;102401.75;;;5.82;100.00
48077;BME280;33854;57.708;12.008;2023-05-08T04:31:42;102394.84;;;5.90;100.00
48077;BME280;33854;57.708;12.008;2023-05-08T04:34:08;102387.94;;;5.95;100.00
48077;BME280;33854;57.708;12.008;2023-05-08T04:36:34;102380.19;;;5.93;100.00
48077;BME280;33854;57.708;12.008;2023-05-08T04:38:59;102382.78;;;6.02;100.00
48077;BME280;33854;57.708;12.008;2023-05-08T04:41:25;102366.34;;;5.97;100.00
48077;BME280;33854;57.708;12.008;2023-05-08T04:43:51;102387.03;;;6.20;100.00
48077;BME280;33854;57.708;12.008;2023-05-08T04:46:17;102383.56;;;6.28;100.00
48077;BME280;33854;57.708;12.008;2023-05-08T04:48:42;102387.91;;;6.34;100.00
48077;BME280;33854;57.708;12.008;2023-05-08T04:51:08;102386.13;;;6.41;100.00
48077;BME280;33854;57.708;12.008;2023-05-08T04:53:33;102383.53;;;6.44;100.00
48077;BME280;33854;57.708;12.008;2023-05-08T04:55:58;102380.94;;;6.51;100.00
48077;BME280;33854;57.708;12.008;2023-05-08T04:58:24;102386.97;;;6.50;100.00
48077;BME280;33854;57.708;12.008;2023-05-08T05:00:49;102386.94;;;6.55;100.00
48077;BME280;33854;57.708;12.008;2023-05-08T05:03:15;102382.66;;;6.57;100.00
48077;BME280;33854;57.708;12.008;2023-05-08T05:05:40;102383.44;;;6.66;100.00
48077;BME280;33854;57.708;12.008;2023-05-08T05:08:06;102368.75;;;6.67;100.00
48077;BME280;33854;57.708;12.008;2023-05-08T05:10:31;102384.25;;;6.83;100.00
48077;BME280;33854;57.708;12.008;2023-05-08T05:12:57;102379.06;;;6.88;100.00
48077;BME280;33854;57.708;12.008;2023-05-08T05:15:22;102378.13;;;6.95;100.00
48077;BME280;33854;57.708;12.008;2023-05-08T05:17:48;102379.84;;;6.99;100.00
48077;BME280;33854;57.708;12.008;2023-05-08T05:20:13;102385.91;;;7.03;100.00
48077;BME280;33854;57.708;12.008;2023-05-08T05:22:39;102376.31;;;7.14;100.00
48077;BME280;33854;57.708;12.008;2023-05-08T05:25:05;102383.19;;;7.21;100.00
48077;BME280;33854;57.708;12.008;2023-05-08T05:27:33;102375.38;;;7.21;100.00
48077;BME280;33854;57.708;12.008;2023-05-08T05:29:59;102377.94;;;7.34;100.00
48077;BME280;33854;57.708;12.008;2023-05-08T05:32:25;102377.03;;;7.37;100.00
48077;BME280;33854;57.708;12.008;2023-05-08T05:34:50;102385.59;;;7.46;100.00
48077;BME280;33854;57.708;12.008;2023-05-08T05:37:17;102386.44;;;7.55;100.00
48077;BME280;33854;57.708;12.008;2023-05-08T05:39:43;102385.53;;;7.59;100.00
48077;BME280;33854;57.708;12.008;2023-05-08T05:42:09;102377.63;;;7.69;100.00
48077;BME280;33854;57.708;12.008;2023-05-08T05:44:34;102382.75;;;7.81;100.00
48077;BME280;33854;57.708;12.008;2023-05-08T05:47:00;102378.34;;;7.86;100.00
48077;BME280;33854;57.708;12.008;2023-05-08T05:49:26;102376.56;;;7.94;100.00
48077;BME280;33854;57.708;12.008;2023-05-08T05:51:51;102374.78;;;7.99;100.00
48077;BME280;33854;57.708;12.008;2023-05-08T05:54:17;102373.00;;;8.04;100.00
48077;BME280;33854;57.708;12.008;2023-05-08T05:56:42;102382.50;;;8.09;100.00
48077;BME280;33854;57.708;12.008;2023-05-08T05:59:07;102373.81;;;8.10;100.00
48077;BME280;33854;57.708;12.008;2023-05-08T06:01:33;102385.03;;;8.18;100.00
48077;BME280;33854;57.708;12.008;2023-05-08T06:03:58;102378.00;;;8.26;100.00
48077;BME280;33854;57.708;12.008;2023-05-08T06:06:24;102380.47;;;8.39;100.00
48077;BME280;33854;57.708;12.008;2023-05-08T06:08:49;102379.59;;;8.42;100.00
48077;BME280;33854;57.708;12.008;2023-05-08T06:11:15;102384.69;;;8.51;100.00
48077;BME280;33854;57.708;12.008;2023-05-08T06:13:40;102378.47;;;8.63;100.00
48077;BME280;33854;57.708;12.008;2023-05-08T06:16:07;102380.13;;;8.70;100.00
48077;BME280;33854;57.708;12.008;2023-05-08T06:18:32;102380.88;;;8.79;100.00
48077;BME280;33854;57.708;12.008;2023-05-08T06:20:58;102378.22;;;8.82;100.00
48077;BME280;33854;57.708;12.008;2023-05-08T06:23:24;102370.38;;;8.85;100.00
48077;BME280;33854;57.708;12.008;2023-05-08T06:25:50;102360.78;;;8.89;100.00
48077;BME280;33854;57.708;12.008;2023-05-08T06:28:16;102361.47;;;9.03;100.00
48077;BME280;33854;57.708;12.008;2023-05-08T06:30:41;102363.09;;;9.11;100.00
48077;BME280;33854;57.708;12.008;2023-05-08T06:33:08;102353.41;;;9.21;100.00
48077;BME280;33854;57.708;12.008;2023-05-08T06:35:33;102355.00;;;9.30;100.00
48077;BME280;33854;57.708;12.008;2023-05-08T06:37:59;102360.00;;;9.43;100.00
48077;BME280;33854;57.708;12.008;2023-05-08T06:40:25;102358.97;;;9.55;100.00
48077;BME280;33854;57.708;12.008;2023-05-08T06:42:51;102354.38;;;9.67;100.00
48077;BME280;33854;57.708;12.008;2023-05-08T06:45:16;102347.31;;;9.74;100.00
48077;BME280;33854;57.708;12.008;2023-05-08T06:47:42;102351.56;;;9.81;100.00
48077;BME280;33854;57.708;12.008;2023-05-08T06:50:07;102347.13;;;9.85;100.00
48077;BME280;33854;57.708;12.008;2023-05-08T06:52:33;102349.72;;;9.86;100.00
48077;BME280;33854;57.708;12.008;2023-05-08T06:54:58;102351.28;;;9.96;100.00
48077;BME280;33854;57.708;12.008;2023-05-08T06:57:24;102344.22;;;10.03;100.00
48077;BME280;33854;57.708;12.008;2023-05-08T06:59:52;102345.66;;;10.19;100.00
48077;BME280;33854;57.708;12.008;2023-05-08T07:02:18;102341.13;;;10.30;100.00
48077;BME280;33854;57.708;12.008;2023-05-08T07:04:43;102334.81;;;10.42;100.00
48077;BME280;33854;57.708;12.008;2023-05-08T07:07:09;102333.78;;;10.49;100.00
48077;BME280;33854;57.708;12.008;2023-05-08T07:09:35;102328.59;;;10.47;99.33
48077;BME280;33854;57.708;12.008;2023-05-08T07:12:01;102324.09;;;10.54;99.40
48077;BME280;33854;57.708;12.008;2023-05-08T07:14:26;102311.03;;;10.54;97.40
48077;BME280;33854;57.708;12.008;2023-05-08T07:16:52;102313.34;;;10.69;96.62
48077;BME280;33854;57.708;12.008;2023-05-08T07:19:18;102322.50;;;10.88;95.24
48077;BME280;33854;57.708;12.008;2023-05-08T07:21:44;102322.97;;;11.05;95.43
48077;BME280;33854;57.708;12.008;2023-05-08T07:24:10;102322.94;;;11.07;93.53
48077;BME280;33854;57.708;12.008;2023-05-08T07:26:36;102311.59;;;11.08;92.64
48077;BME280;33854;57.708;12.008;2023-05-08T07:29:02;102322.41;;;11.29;92.73
48077;BME280;33854;57.708;12.008;2023-05-08T07:31:27;102321.34;;;11.36;91.45
48077;BME280;33854;57.708;12.008;2023-05-08T07:33:52;102316.03;;;11.41;90.11
48077;BME280;33854;57.708;12.008;2023-05-08T07:36:18;102315.09;;;11.43;89.12
48077;BME280;33854;57.708;12.008;2023-05-08T07:38:44;102304.44;;;11.51;88.86
48077;BME280;33854;57.708;12.008;2023-05-08T07:41:10;102313.66;;;11.66;88.41
48077;BME280;33854;57.708;12.008;2023-05-08T07:43:35;102300.47;;;11.72;88.13
48077;BME280;33854;57.708;12.008;2023-05-08T07:46:01;102303.50;;;11.89;87.18
48077;BME280;33854;57.708;12.008;2023-05-08T07:48:27;102303.25;;;11.98;87.18
48077;BME280;33854;57.708;12.008;2023-05-08T07:50:52;102309.03;;;12.11;88.04
48077;BME280;33854;57.708;12.008;2023-05-08T07:53:18;102307.16;;;12.14;87.42
48077;BME280;33854;57.708;12.008;2023-05-08T07:55:43;102313.88;;;12.23;87.28
48077;BME280;33854;57.708;12.008;2023-05-08T07:58:09;102312.03;;;12.28;87.29
48077;BME280;33854;57.708;12.008;2023-05-08T08:00:34;102312.44;;;12.43;87.65
48077;BME280;33854;57.708;12.008;2023-05-08T08:03:00;102308.75;;;12.50;87.53
48077;BME280;33854;57.708;12.008;2023-05-08T08:05:26;102308.41;;;12.63;87.78
48077;BME280;33854;57.708;12.008;2023-05-08T08:07:52;102311.66;;;12.71;88.04
48077;BME280;33854;57.708;12.008;2023-05-08T08:10:18;102297.72;;;12.69;87.56
48077;BME280;33854;57.708;12.008;2023-05-08T08:12:44;102309.47;;;12.85;88.05
48077;BME280;33854;57.708;12.008;2023-05-08T08:15:10;102288.69;;;12.79;87.81
48077;BME280;33854;57.708;12.008;2023-05-08T08:17:35;102310.34;;;12.84;87.62
48077;BME280;33854;57.708;12.008;2023-05-08T08:20:01;102315.50;;;12.87;87.28
48077;BME280;33854;57.708;12.008;2023-05-08T08:22:27;102315.00;;;12.74;86.71
48077;BME280;33854;57.708;12.008;2023-05-08T08:24:55;102319.25;;;12.78;87.14
48077;BME280;33854;57.708;12.008;2023-05-08T08:27:21;102317.44;;;12.80;87.36
48077;BME280;33854;57.708;12.008;2023-05-08T08:29:46;102321.16;;;12.73;86.41
48077;BME280;33854;57.708;12.008;2023-05-08T08:32:12;102321.88;;;12.78;87.02
48077;BME280;33854;57.708;12.008;2023-05-08T08:34:37;102315.88;;;12.75;87.13
48077;BME280;33854;57.708;12.008;2023-05-08T08:37:06;102313.56;;;12.64;86.97
48077;BME280;33854;57.708;12.008;2023-05-08T08:39:34;102323.81;;;12.72;87.64
48077;BME280;33854;57.708;12.008;2023-05-08T08:42:00;102315.50;;;12.87;88.77
48077;BME280;33854;57.708;12.008;2023-05-08T08:44:26;102324.34;;;12.83;87.75
48077;BME280;33854;57.708;12.008;2023-05-08T08:46:52;102314.63;;;12.86;87.76
48077;BME280;33854;57.708;12.008;2023-05-08T08:49:24;102328.25;;;12.99;89.67
48077;BME280;33854;57.708;12.008;2023-05-08T08:51:58;102326.03;;;13.14;91.17
48077;BME280;33854;57.708;12.008;2023-05-08T08:54:28;102324.16;;;13.18;90.50
48077;BME280;33854;57.708;12.008;2023-05-08T08:56:55;102302.72;;;13.05;90.62
48077;BME280;33854;57.708;12.008;2023-05-08T08:59:22;102321.44;;;13.21;91.55
48077;BME280;33854;57.708;12.008;2023-05-08T09:01:54;102322.06;;;13.29;92.57
48077;BME280;33854;57.708;12.008;2023-05-08T09:04:20;102323.50;;;13.39;92.19
48077;BME280;33854;57.708;12.008;2023-05-08T09:06:46;102316.22;;;13.47;94.31
48077;BME280;33854;57.708;12.008;2023-05-08T09:09:13;102324.19;;;13.44;94.29
48077;BME280;33854;57.708;12.008;2023-05-08T09:11:39;102309.78;;;13.31;95.62
48077;BME280;33854;57.708;12.008;2023-05-08T09:14:05;102320.25;;;13.57;95.71
48077;BME280;33854;57.708;12.008;2023-05-08T09:16:31;102320.88;;;13.65;97.46
48077;BME280;33854;57.708;12.008;2023-05-08T09:18:56;102313.59;;;13.74;100.00
48077;BME280;33854;57.708;12.008;2023-05-08T09:21:22;102321.75;;;13.64;100.00
48077;BME280;33854;57.708;12.008;2023-05-08T09:24:01;102320.81;;;13.67;100.00
48077;BME280;33854;57.708;12.008;2023-05-08T09:29:08;102307.53;;;13.72;100.00
48077;BME280;33854;57.708;12.008;2023-05-08T09:31:35;102305.34;;;13.59;100.00
48077;BME280;33854;57.708;12.008;2023-05-08T09:34:01;102287.09;;;13.55;100.00
48077;BME280;33854;57.708;12.008;2023-05-08T09:36:26;102310.97;;;13.47;100.00
48077;BME280;33854;57.708;12.008;2023-05-08T09:38:53;102298.75;;;13.46;100.00
48077;BME280;33854;57.708;12.008;2023-05-08T09:41:18;102294.94;;;13.56;100.00
48077;BME280;33854;57.708;12.008;2023-05-08T09:44:00;102293.41;;;13.76;100.00
48077;BME280;33854;57.708;12.008;2023-05-08T09:46:26;102293.00;;;13.86;100.00
48077;BME280;33854;57.708;12.008;2023-05-08T09:48:56;102289.50;;;13.87;100.00
48077;BME280;33854;57.708;12.008;2023-05-08T09:51:23;102283.06;;;13.96;100.00
48077;BME280;33854;57.708;12.008;2023-05-08T09:53:50;102291.28;;;14.10;100.00
48077;BME280;33854;57.708;12.008;2023-05-08T09:56:33;102288.56;;;14.13;100.00
48077;BME280;33854;57.708;12.008;2023-05-08T09:58:59;102290.06;;;14.20;100.00
48077;BME280;33854;57.708;12.008;2023-05-08T10:01:35;102282.78;;;14.26;100.00
48077;BME280;33854;57.708;12.008;2023-05-08T10:04:01;102272.56;;;14.44;100.00
48077;BME280;33854;57.708;12.008;2023-05-08T10:06:28;102276.50;;;14.55;100.00
48077;BME280;33854;57.708;12.008;2023-05-08T10:09:11;102273.63;;;14.61;100.00
48077;BME280;33854;57.708;12.008;2023-05-08T10:11:38;102271.91;;;14.83;100.00
48077;BME280;33854;57.708;12.008;2023-05-08T10:14:04;102277.19;;;15.04;100.00
48077;BME280;33854;57.708;12.008;2023-05-08T10:16:30;102274.66;;;14.80;100.00
48077;BME280;33854;57.708;12.008;2023-05-08T10:19:04;102272.94;;;14.79;100.00
48077;BME280;33854;57.708;12.008;2023-05-08T10:21:35;102266.03;;;14.77;100.00
48077;BME280;33854;57.708;12.008;2023-05-08T10:24:04;102249.78;;;14.89;100.00
48077;BME280;33854;57.708;12.008;2023-05-08T10:26:30;102267.25;;;15.12;100.00
48077;BME280;33854;57.708;12.008;2023-05-08T10:31:24;102259.13;;;15.18;100.00
48077;BME280;33854;57.708;12.008;2023-05-08T10:33:55;102262.97;;;15.09;100.00
48077;BME280;33854;57.708;12.008;2023-05-08T10:36:24;102262.91;;;15.11;100.00
48077;BME280;33854;57.708;12.008;2023-05-08T10:38:50;102260.16;;;15.14;100.00
48077;BME280;33854;57.708;12.008;2023-05-08T10:41:18;102254.59;;;15.00;99.68
48077;BME280;33854;57.708;12.008;2023-05-08T10:43:43;102259.66;;;15.04;100.00
48077;BME280;33854;57.708;12.008;2023-05-08T10:48:53;102253.38;;;15.08;98.08
48077;BME280;33854;57.708;12.008;2023-05-08T10:54:05;102244.69;;;15.06;93.35
48077;BME280;33854;57.708;12.008;2023-05-08T10:56:36;102244.78;;;15.25;92.21
48077;BME280;33854;57.708;12.008;2023-05-08T10:59:02;102240.88;;;15.35;90.34
48077;BME280;33854;57.708;12.008;2023-05-08T11:01:28;102215.31;;;15.17;87.25
48077;BME280;33854;57.708;12.008;2023-05-08T11:03:54;102249.50;;;15.17;86.28
48077;BME280;33854;57.708;12.008;2023-05-08T11:06:42;102237.34;;;15.14;84.46
48077;BME280;33854;57.708;12.008;2023-05-08T11:09:14;102236.22;;;15.20;83.56
48077;BME280;33854;57.708;12.008;2023-05-08T11:11:40;102239.00;;;15.17;82.75
48077;BME280;33854;57.708;12.008;2023-05-08T11:14:12;102239.91;;;15.16;82.09
48077;BME280;33854;57.708;12.008;2023-05-08T11:19:24;102231.13;;;15.37;80.86
48077;BME280;33854;57.708;12.008;2023-05-08T11:22:22;102235.03;;;15.49;78.19
48077;BME280;33854;57.708;12.008;2023-05-08T11:24:54;102218.91;;;15.56;77.84
48077;BME280;33854;57.708;12.008;2023-05-08T11:28:18;102229.00;;;15.47;77.48
48077;BME280;33854;57.708;12.008;2023-05-08T11:30:34;102218.97;;;15.34;77.11
48077;BME280;33854;57.708;12.008;2023-05-08T11:40:55;102198.56;;;15.80;74.52
48077;BME280;33854;57.708;12.008;2023-05-08T11:46:15;102199.63;;;16.15;70.04
48077;BME280;33854;57.708;12.008;2023-05-08T11:48:41;102192.63;;;16.14;69.00
48077;BME280;33854;57.708;12.008;2023-05-08T11:51:06;102193.38;;;16.53;69.05
48077;BME280;33854;57.708;12.008;2023-05-08T11:53:32;102180.13;;;16.73;66.11
48077;BME280;33854;57.708;12.008;2023-05-08T11:55:58;102183.75;;;16.89;64.74
48077;BME280;33854;57.708;12.008;2023-05-08T11:58:24;102181.72;;;16.94;63.55
48077;BME280;33854;57.708;12.008;2023-05-08T12:00:50;102179.53;;;16.85;61.83
48077;BME280;33854;57.708;12.008;2023-05-08T12:03:23;102174.69;;;17.12;61.40
48077;BME280;33854;57.708;12.008;2023-05-08T12:05:55;102181.25;;;17.72;60.74
48077;BME280;33854;57.708;12.008;2023-05-08T12:08:20;102176.28;;;18.14;58.69
48077;BME280;33854;57.708;12.008;2023-05-08T12:13:29;102168.75;;;18.71;55.64
48077;BME280;33854;57.708;12.008;2023-05-08T12:15:57;102169.41;;;18.74;55.81
48077;BME280;33854;57.708;12.008;2023-05-08T12:18:24;102170.88;;;18.94;53.09
48077;BME280;33854;57.708;12.008;2023-05-08T12:20:58;102160.81;;;18.71;52.78
48077;BME280;33854;57.708;12.008;2023-05-08T12:23:25;102185.03;;;18.16;50.48
48077;BME280;33854;57.708;12.008;2023-05-08T12:25:51;102189.03;;;18.39;49.85
48077;BME280;33854;57.708;12.008;2023-05-08T12:28:20;102186.97;;;18.29;49.27
48077;BME280;33854;57.708;12.008;2023-05-08T12:30:46;102198.09;;;18.02;48.65
48077;BME280;33854;57.708;12.008;2023-05-08T12:33:11;102185.03;;;18.16;48.64
48077;BME280;33854;57.708;12.008;2023-05-08T12:35:40;102187.78;;;18.62;48.79
48077;BME280;33854;57.708;12.008;2023-05-08T12:38:06;102185.44;;;19.47;47.73
48077;BME280;33854;57.708;12.008;2023-05-08T12:40:39;102178.31;;;20.18;46.00
48077;BME280;33854;57.708;12.008;2023-05-08T12:43:04;102179.84;;;20.22;45.09
48077;BME280;33854;57.708;12.008;2023-05-08T12:45:32;102164.78;;;20.22;45.08
48077;BME280;33854;57.708;12.008;2023-05-08T12:48:03;102170.50;;;20.02;44.13
48077;BME280;33854;57.708;12.008;2023-05-08T12:50:34;102169.00;;;19.56;43.91
48077;BME280;33854;57.708;12.008;2023-05-08T12:53:04;102169.28;;;19.65;44.58
48077;BME280;33854;57.708;12.008;2023-05-08T12:55:31;102177.59;;;19.59;42.47
48077;BME280;33854;57.708;12.008;2023-05-08T12:58:05;102179.03;;;19.65;41.94
48077;BME280;33854;57.708;12.008;2023-05-08T13:03:21;102174.97;;;19.29;42.31
48077;BME280;33854;57.708;12.008;2023-05-08T13:05:48;102171.44;;;19.59;42.38
48077;BME280;33854;57.708;12.008;2023-05-08T13:08:14;102174.09;;;19.59;41.67
48077;BME280;33854;57.708;12.008;2023-05-08T13:13:09;102175.03;;;19.14;42.41
48077;BME280;33854;57.708;12.008;2023-05-08T13:15:34;102177.94;;;19.09;42.56
48077;BME280;33854;57.708;12.008;2023-05-08T13:18:00;102174.84;;;19.17;43.82
48077;BME280;33854;57.708;12.008;2023-05-08T13:20:25;102160.28;;;19.54;43.35
48077;BME280;33854;57.708;12.008;2023-05-08T13:22:51;102170.38;;;19.17;44.20
48077;BME280;33854;57.708;12.008;2023-05-08T13:25:16;102161.22;;;19.67;44.57
48077;BME280;33854;57.708;12.008;2023-05-08T13:27:41;102156.38;;;19.31;45.07
48077;BME280;33854;57.708;12.008;2023-05-08T13:30:07;102161.41;;;19.78;45.54
48077;BME280;33854;57.708;12.008;2023-05-08T13:32:33;102153.25;;;20.09;46.07
48077;BME280;33854;57.708;12.008;2023-05-08T13:34:58;102154.94;;;20.38;45.02
48077;BME280;33854;57.708;12.008;2023-05-08T13:37:23;102152.34;;;19.82;46.32